| time (UTC) | temp C | wind direction | speed KPH | gust KPH | rain 1hr cm | rain 24hr cm | rain mn cm | humidity % | barometer mb |
| 20260510063910 | 12 | 33 | 17.7 | 40.2 | 0.00 | 0.00 | 0.00 | 79 | 1014.0 |
| 20260510062910 | 12 | 33 | 17.7 | 40.2 | 0.00 | 0.00 | 0.00 | 79 | 1014.0 |
| 20260510061909 | 12 | 33 | 17.7 | 40.2 | 0.00 | 0.00 | 0.00 | 79 | 1014.0 |
| 20260510060909 | 12 | 33 | 17.7 | 40.2 | 0.00 | 0.00 | 0.00 | 79 | 1014.0 |
| 20260510055909 | 12 | 33 | 19.3 | 40.2 | 0.00 | 0.00 | 0.00 | 79 | 1014.0 |
| 20260510054909 | 12 | 33 | 19.3 | 40.2 | 0.00 | 0.00 | 0.00 | 79 | 1014.0 |
| 20260510053909 | 10 | 46 | 12.9 | 32.2 | 0.00 | 0.00 | 0.00 | 60 | 1014.0 |
| 20260510052908 | 10 | 46 | 12.9 | 32.2 | 0.00 | 0.00 | 0.00 | 60 | 1014.0 |
| 20260510051908 | 10 | 46 | 12.9 | 32.2 | 0.00 | 0.00 | 0.00 | 60 | 1014.0 |
| 20260510050908 | 10 | 46 | 12.9 | 32.2 | 0.00 | 0.00 | 0.00 | 60 | 1014.0 |
| 20260510045908 | 10 | 46 | 12.9 | 32.2 | 0.00 | 0.00 | 0.00 | 60 | 1014.0 |
| 20260510044908 | 10 | 46 | 12.9 | 32.2 | 0.00 | 0.00 | 0.00 | 60 | 1014.0 |
| 20260510043908 | 10 | 46 | 12.9 | 32.2 | 0.00 | 0.00 | 0.00 | 60 | 1014.0 |
| 20260510042907 | 10 | 46 | 12.9 | 32.2 | 0.00 | 0.00 | 0.00 | 60 | 1014.0 |
| 20260510041907 | 10 | 46 | 12.9 | 32.2 | 0.00 | 0.00 | 0.00 | 60 | 1014.0 |
| 20260510040907 | 10 | 46 | 12.9 | 32.2 | 0.00 | 0.00 | 0.00 | 60 | 1014.0 |
| 20260510035907 | 10 | 46 | 12.9 | 32.2 | 0.00 | 0.00 | 0.00 | 60 | 1014.0 |
| 20260510034907 | 10 | 46 | 12.9 | 32.2 | 0.00 | 0.00 | 0.00 | 60 | 1014.0 |
| 20260510033907 | 10 | 46 | 12.9 | 32.2 | 0.00 | 0.00 | 0.00 | 60 | 1014.0 |
| 20260510032906 | 10 | 46 | 12.9 | 32.2 | 0.00 | 0.00 | 0.00 | 60 | 1014.0 |
| 20260510031906 | 11 | 46 | 12.9 | 32.2 | 0.00 | 0.00 | 0.00 | 60 | 1014.0 |
| 20260510030906 | 11 | 46 | 12.9 | 32.2 | 0.00 | 0.00 | 0.00 | 60 | 1014.0 |
| 20260510025906 | 11 | 46 | 12.9 | 32.2 | 0.00 | 0.00 | 0.00 | 60 | 1014.0 |
| 20260510024906 | 11 | 46 | 12.9 | 32.2 | 0.00 | 0.00 | 0.00 | 60 | 1014.0 |
| 20260510023906 | 11 | 46 | 12.9 | 32.2 | 0.00 | 0.00 | 0.00 | 60 | 1014.0 |
| 20260510022905 | 11 | 46 | 12.9 | 32.2 | 0.00 | 0.00 | 0.00 | 60 | 1014.0 |
| 20260510021905 | 11 | 46 | 12.9 | 32.2 | 0.00 | 0.00 | 0.00 | 60 | 1014.0 |
| 20260510020905 | 11 | 46 | 12.9 | 32.2 | 0.00 | 0.00 | 0.00 | 60 | 1014.0 |
| 20260510015905 | 11 | 46 | 12.9 | 32.2 | 0.00 | 0.00 | 0.00 | 60 | 1014.0 |
| 20260510014904 | 11 | 46 | 12.9 | 32.2 | 0.00 | 0.00 | 0.00 | 60 | 1014.0 |
| 20260510013904 | 11 | 46 | 12.9 | 32.2 | 0.00 | 0.00 | 0.00 | 60 | 1014.0 |
| 20260510012904 | 11 | 46 | 12.9 | 32.2 | 0.00 | 0.00 | 0.00 | 60 | 1014.0 |
| 20260510011904 | 11 | 46 | 12.9 | 32.2 | 0.00 | 0.00 | 0.00 | 60 | 1014.0 |
| 20260510010904 | 11 | 46 | 12.9 | 32.2 | 0.00 | 0.00 | 0.00 | 60 | 1014.0 |
| 20260510005904 | 11 | 46 | 12.9 | 32.2 | 0.00 | 0.00 | 0.00 | 60 | 1014.0 |
| 20260510004904 | 11 | 46 | 12.9 | 32.2 | 0.00 | 0.00 | 0.00 | 60 | 1014.0 |
| 20260510003903 | 12 | 46 | 12.9 | 32.2 | 0.00 | 0.00 | 0.00 | 60 | 1015.0 |
| 20260510002903 | 12 | 46 | 12.9 | 32.2 | 0.00 | 0.00 | 0.00 | 60 | 1015.0 |
| 20260510001903 | 12 | 46 | 12.9 | 32.2 | 0.00 | 0.00 | 0.00 | 60 | 1015.0 |
| 20260510000903 | 12 | 46 | 12.9 | 32.2 | 0.00 | 0.00 | 0.00 | 60 | 1015.0 |
| 20260509235902 | 12 | 46 | 12.9 | 32.2 | 0.00 | 0.00 | 0.00 | 60 | 1015.0 |
| 20260509234902 | 12 | 46 | 12.9 | 32.2 | 0.00 | 0.00 | 0.00 | 60 | 1015.0 |
| 20260509233902 | 12 | 46 | 12.9 | 32.2 | 0.00 | 0.00 | 0.00 | 60 | 1015.0 |
| 20260509232902 | 12 | 46 | 12.9 | 32.2 | 0.00 | 0.00 | 0.00 | 60 | 1015.0 |
| 20260509231902 | 12 | 46 | 12.9 | 32.2 | 0.00 | 0.00 | 0.00 | 60 | 1015.0 |
| 20260509230902 | 12 | 46 | 12.9 | 32.2 | 0.00 | 0.00 | 0.00 | 60 | 1015.0 |
| 20260509225901 | 12 | 46 | 12.9 | 32.2 | 0.00 | 0.00 | 0.00 | 60 | 1015.0 |
| 20260509224901 | 12 | 46 | 12.9 | 32.2 | 0.00 | 0.00 | 0.00 | 60 | 1015.0 |
| 20260509223901 | 12 | 46 | 12.9 | 32.2 | 0.00 | 0.00 | 0.00 | 60 | 1015.0 |
| 20260509222901 | 12 | 46 | 12.9 | 32.2 | 0.00 | 0.00 | 0.00 | 60 | 1015.0 |
| 20260509221901 | 12 | 46 | 12.9 | 32.2 | 0.00 | 0.00 | 0.00 | 60 | 1015.0 |
| 20260509220900 | 13 | 46 | 12.9 | 32.2 | 0.00 | 0.00 | 0.00 | 60 | 1015.0 |
| 20260509215900 | 13 | 46 | 12.9 | 32.2 | 0.00 | 0.00 | 0.00 | 60 | 1015.0 |
| 20260509214900 | 13 | 46 | 12.9 | 32.2 | 0.00 | 0.00 | 0.00 | 60 | 1015.0 |
| 20260509213900 | 13 | 46 | 12.9 | 32.2 | 0.00 | 0.00 | 0.00 | 60 | 1015.0 |
| 20260509212900 | 13 | 46 | 12.9 | 32.2 | 0.00 | 0.00 | 0.00 | 60 | 1015.0 |
| 20260509211900 | 13 | 46 | 12.9 | 32.2 | 0.00 | 0.00 | 0.00 | 60 | 1015.0 |
| 20260509210859 | 13 | 46 | 12.9 | 32.2 | 0.00 | 0.00 | 0.00 | 60 | 1015.0 |
| 20260509205859 | 13 | 46 | 12.9 | 32.2 | 0.00 | 0.00 | 0.00 | 60 | 1015.0 |
| 20260509204859 | 13 | 46 | 12.9 | 32.2 | 0.00 | 0.00 | 0.00 | 60 | 1015.0 |
| 20260509203859 | 13 | 46 | 12.9 | 32.2 | 0.00 | 0.00 | 0.00 | 60 | 1015.0 |
| 20260509202859 | 13 | 46 | 12.9 | 32.2 | 0.00 | 0.00 | 0.00 | 60 | 1015.0 |
| 20260509201858 | 13 | 46 | 12.9 | 32.2 | 0.00 | 0.00 | 0.00 | 60 | 1015.0 |
| 20260509200858 | 13 | 46 | 12.9 | 32.2 | 0.00 | 0.00 | 0.00 | 60 | 1015.0 |
| 20260509195858 | 13 | 46 | 12.9 | 32.2 | 0.00 | 0.00 | 0.00 | 60 | 1015.0 |
| 20260509194858 | 13 | 46 | 12.9 | 32.2 | 0.00 | 0.00 | 0.00 | 60 | 1015.0 |
| 20260509193858 | 14 | 46 | 12.9 | 32.2 | 0.00 | 0.00 | 0.00 | 60 | 1015.0 |
| 20260509192858 | 15 | 46 | 12.9 | 32.2 | 0.00 | 0.00 | 0.00 | 60 | 1014.0 |
| 20260509191857 | 15 | 46 | 14.5 | 32.2 | 0.00 | 0.00 | 0.00 | 60 | 1014.0 |
| 20260509190858 | 12 | 46 | 12.9 | 32.2 | 0.00 | 0.00 | 0.00 | 65 | 1015.0 |
| 20260509185857 | 12 | 46 | 12.9 | 32.2 | 0.00 | 0.00 | 0.00 | 65 | 1015.0 |
| 20260509184857 | 12 | 46 | 12.9 | 32.2 | 0.00 | 0.00 | 0.00 | 65 | 1015.0 |
| 20260509183857 | 12 | 46 | 14.5 | 32.2 | 0.00 | 0.00 | 0.00 | 65 | 1015.0 |
| 20260509182856 | 20 | 63 | 11.3 | 24.1 | 0.00 | 0.00 | 0.00 | 56 | 1014.0 |
| 20260509181856 | 20 | 63 | 11.3 | 24.1 | 0.00 | 0.00 | 0.00 | 56 | 1014.0 |
| 20260509180856 | 21 | 63 | 11.3 | 24.1 | 0.00 | 0.00 | 0.00 | 59 | 1014.0 |
| 20260509175856 | 21 | 63 | 11.3 | 24.1 | 0.00 | 0.00 | 0.00 | 59 | 1014.0 |
| 20260509174851 | 21 | 63 | 11.3 | 24.1 | 0.00 | 0.00 | 0.00 | 59 | 1014.0 |
| 20260509173851 | 21 | 77 | 12.9 | 12.9 | 0.00 | 0.00 | 0.00 | 58 | 1014.0 |
| 20260509172851 | 21 | 77 | 12.9 | 12.9 | 0.00 | 0.00 | 0.00 | 58 | 1014.0 |
| 20260509171851 | 21 | 77 | 12.9 | 12.9 | 0.00 | 0.00 | 0.00 | 58 | 1014.0 |
| 20260509170851 | 21 | 77 | 12.9 | 12.9 | 0.00 | 0.00 | 0.00 | 58 | 1014.0 |
| 20260509165850 | 21 | 77 | 12.9 | 12.9 | 0.00 | 0.00 | 0.00 | 58 | 1014.0 |
| 20260509164850 | 21 | 77 | 12.9 | 12.9 | 0.00 | 0.00 | 0.00 | 58 | 1014.0 |
| 20260509163850 | 21 | 77 | 12.9 | 12.9 | 0.00 | 0.00 | 0.00 | 58 | 1014.0 |
| 20260509162850 | 21 | 77 | 12.9 | 12.9 | 0.00 | 0.00 | 0.00 | 58 | 1014.0 |
| 20260509161850 | 21 | 77 | 12.9 | 12.9 | 0.00 | 0.00 | 0.00 | 58 | 1014.0 |
| 20260509160850 | 21 | 77 | 12.9 | 12.9 | 0.00 | 0.00 | 0.00 | 58 | 1014.0 |
| 20260509155849 | 21 | 77 | 12.9 | 12.9 | 0.00 | 0.00 | 0.00 | 58 | 1014.0 |
| 20260509154849 | 21 | 77 | 12.9 | 12.9 | 0.00 | 0.00 | 0.00 | 58 | 1014.0 |
| 20260509153849 | 21 | 77 | 12.9 | 12.9 | 0.00 | 0.00 | 0.00 | 58 | 1014.0 |
| 20260509152849 | 21 | 77 | 12.9 | 12.9 | 0.00 | 0.00 | 0.00 | 58 | 1014.0 |
| 20260509151849 | 21 | 77 | 12.9 | 12.9 | 0.00 | 0.00 | 0.00 | 58 | 1014.0 |
| 20260509150848 | 21 | 77 | 12.9 | 12.9 | 0.00 | 0.00 | 0.00 | 58 | 1015.0 |
| 20260509145848 | 21 | 77 | 12.9 | 12.9 | 0.00 | 0.00 | 0.00 | 58 | 1015.0 |
| 20260509144848 | 21 | 77 | 12.9 | 12.9 | 0.00 | 0.00 | 0.00 | 58 | 1015.0 |
| 20260509143848 | 21 | 77 | 12.9 | 12.9 | 0.00 | 0.00 | 0.00 | 58 | 1015.0 |
| 20260509142848 | 21 | 77 | 12.9 | 12.9 | 0.00 | 0.00 | 0.00 | 58 | 1015.0 |
| 20260509141848 | 21 | 77 | 12.9 | 12.9 | 0.00 | 0.00 | 0.00 | 58 | 1015.0 |
| 20260509140847 | 21 | 77 | 12.9 | 12.9 | 0.00 | 0.00 | 0.00 | 58 | 1015.0 |
| 20260509135847 | 21 | 77 | 12.9 | 12.9 | 0.00 | 0.00 | 0.00 | 58 | 1015.0 |
| 20260509134847 | 21 | 77 | 12.9 | 12.9 | 0.00 | 0.00 | 0.00 | 58 | 1015.0 |
| 20260509133847 | 21 | 77 | 12.9 | 12.9 | 0.00 | 0.00 | 0.00 | 58 | 1015.0 |
| 20260509132847 | 21 | 77 | 12.9 | 12.9 | 0.00 | 0.00 | 0.00 | 58 | 1016.0 |
| 20260509131847 | 21 | 77 | 12.9 | 12.9 | 0.00 | 0.00 | 0.00 | 58 | 1016.0 |
| 20260509130846 | 21 | 77 | 12.9 | 12.9 | 0.00 | 0.00 | 0.00 | 58 | 1016.0 |
| 20260509125846 | 21 | 77 | 12.9 | 12.9 | 0.00 | 0.00 | 0.00 | 58 | 1016.0 |
| 20260509124846 | 21 | 77 | 12.9 | 12.9 | 0.00 | 0.00 | 0.00 | 58 | 1016.0 |
| 20260509123846 | 21 | 77 | 12.9 | 12.9 | 0.00 | 0.00 | 0.00 | 58 | 1016.0 |
| 20260509122846 | 21 | 77 | 12.9 | 12.9 | 0.00 | 0.00 | 0.00 | 58 | 1016.0 |
| 20260509121846 | 21 | 77 | 12.9 | 12.9 | 0.00 | 0.00 | 0.00 | 58 | 1016.0 |
| 20260509120846 | 21 | 77 | 12.9 | 12.9 | 0.00 | 0.00 | 0.00 | 58 | 1016.0 |
| 20260509115845 | 21 | 77 | 12.9 | 12.9 | 0.00 | 0.00 | 0.00 | 58 | 1016.0 |
| 20260509114845 | 21 | 77 | 12.9 | 12.9 | 0.00 | 0.00 | 0.00 | 58 | 1016.0 |
| 20260509113846 | 21 | 77 | 12.9 | 12.9 | 0.00 | 0.00 | 0.00 | 58 | 1016.0 |
| 20260509112845 | 21 | 77 | 12.9 | 12.9 | 0.00 | 0.00 | 0.00 | 58 | 1017.0 |
| 20260509111844 | 21 | 77 | 12.9 | 12.9 | 0.00 | 0.00 | 0.00 | 58 | 1017.0 |
| 20260509110844 | 21 | 77 | 14.5 | 14.5 | 0.00 | 0.00 | 0.00 | 58 | 1017.0 |
| 20260509105844 | 17 | 77 | 12.9 | 17.7 | 0.00 | 0.00 | 0.00 | 60 | 1017.0 |
| 20260509104844 | 17 | 77 | 12.9 | 17.7 | 0.00 | 0.00 | 0.00 | 60 | 1017.0 |
| 20260509103844 | 17 | 77 | 12.9 | 17.7 | 0.00 | 0.00 | 0.00 | 60 | 1017.0 |
| 20260509102845 | 17 | 77 | 12.9 | 17.7 | 0.00 | 0.00 | 0.00 | 60 | 1017.0 |
| 20260509101844 | 17 | 77 | 12.9 | 17.7 | 0.00 | 0.00 | 0.00 | 60 | 1017.0 |
| 20260509100843 | 18 | 77 | 12.9 | 17.7 | 0.00 | 0.00 | 0.00 | 60 | 1017.0 |
| 20260509095844 | 18 | 77 | 12.9 | 17.7 | 0.00 | 0.00 | 0.00 | 60 | 1017.0 |
| 20260509094843 | 19 | 77 | 12.9 | 17.7 | 0.00 | 0.00 | 0.00 | 60 | 1017.0 |
| 20260509093842 | 20 | 77 | 12.9 | 19.3 | 0.00 | 0.00 | 0.00 | 60 | 1017.0 |
| 20260509092842 | 11 | 73 | 11.3 | 17.7 | 0.00 | 0.00 | 0.00 | 67 | 1017.0 |
| 20260509091842 | 11 | 73 | 11.3 | 17.7 | 0.00 | 0.00 | 0.00 | 67 | 1017.0 |
| 20260509090842 | 12 | 73 | 11.3 | 17.7 | 0.00 | 0.00 | 0.00 | 67 | 1017.0 |
| 20260509085842 | 12 | 73 | 11.3 | 19.3 | 0.00 | 0.00 | 0.00 | 67 | 1017.0 |
| 20260509084841 | 12 | 73 | 11.3 | 19.3 | 0.00 | 0.00 | 0.00 | 67 | 1017.0 |
| 20260509083841 | 11 | 72 | 8.0 | 16.1 | 0.00 | 0.00 | 0.00 | 79 | 1018.0 |
| 20260509082841 | 11 | 72 | 8.0 | 16.1 | 0.00 | 0.00 | 0.00 | 79 | 1018.0 |
| 20260509081841 | 11 | 72 | 8.0 | 16.1 | 0.00 | 0.00 | 0.00 | 79 | 1018.0 |
| 20260509080841 | 12 | 72 | 8.0 | 16.1 | 0.00 | 0.00 | 0.00 | 79 | 1018.0 |
| 20260509075841 | 12 | 72 | 8.0 | 16.1 | 0.00 | 0.00 | 0.00 | 79 | 1018.0 |
| 20260509074841 | 12 | 72 | 8.0 | 16.1 | 0.00 | 0.00 | 0.00 | 79 | 1018.0 |
| 20260509073840 | 12 | 72 | 8.0 | 16.1 | 0.00 | 0.00 | 0.00 | 79 | 1018.0 |
| 20260509072840 | 12 | 72 | 8.0 | 16.1 | 0.00 | 0.00 | 0.00 | 79 | 1018.0 |
| 20260509071840 | 12 | 72 | 8.0 | 16.1 | 0.00 | 0.00 | 0.00 | 79 | 1018.0 |
| 20260509070840 | 12 | 72 | 8.0 | 16.1 | 0.00 | 0.00 | 0.00 | 79 | 1018.0 |
| 20260509065840 | 12 | 72 | 8.0 | 16.1 | 0.00 | 0.00 | 0.00 | 79 | 1018.0 |
| 20260509064839 | 12 | 72 | 8.0 | 16.1 | 0.00 | 0.00 | 0.00 | 79 | 1018.0 |